Welkom op Weerpagina Nieuwendam !!





My webcam Meer informatie My webcam


Onweer radar Meer informatie blitzortung!


Regen radar  rain snow radar


Bezoek onze andere website:

Template documentation
and downloads

And another site



METAR rapporten vliegvelden

   
EHAM - Amsterdam/Schiph, Netherlands
Afstand tot: ONO 18 km
Gewijzigd: 23-02-2018 12:55
Licht bewolkt  
Licht bewolkt  
   Wind: Oosten 6.7 m/s
Wind: Oosten 6.7 m/s
Temperatuur: 3°C
Voelt als: -2°C
Dauwpunt: -5°C
Vochtigheid: 56%
Barometer: 1024 hPa
Bewolking: Few Clouds
Zicht: meer dan 10 km
Bewolking: Licht bewolkt 3000 ft
EHAM 231155Z 09013KT 050V130 9999 FEW030 03/M05 Q1024 NOSIG
EHRD - Rotterdam Airpor, Netherlands
Afstand tot: ZZW 32 km
Gewijzigd: 23-02-2018 12:55
Gedeeltelijk bewolkt  
Gedeeltelijk bewolkt  
   Wind: Oosten 7.2 m/s
Wind: Oosten 7.2 m/s
Temperatuur: 2°C
Voelt als: -3°C
Dauwpunt: -5°C
Vochtigheid: 60%
Barometer: 1023 hPa
Bewolking: Partly Cloudy
Zicht: meer dan 10 km
Bewolking: Gedeeltelijk bewolkt ft
EHRD 231155Z AUTO 09014KT 040V120 9999 NSC 02/M05 Q1023 NOSIG
EHSC - Goeree Le Sea, Netherlands
Afstand tot: WZW 70 km
Gewijzigd: 23-02-2018 12:55
  
  
   Wind: Oosten 10.3 m/s
Wind: Oosten 10.3 m/s
Temperatuur: 1°C
Voelt als: -6°C
Dauwpunt: -5°C
Vochtigheid: 65%
Barometer: 1022 hPa
Zicht: meer dan 10 km
EHSC 231155Z AUTO 09020KT 9999 ///////// 01/M05 Q1022 W05/H9
EHKD - De Kooy (navy), Netherlands
Afstand tot: N 77 km
Gewijzigd: 23-02-2018 12:55
Bewolking  
Bewolking  
   Wind: Oosten 7.2 m/s
Wind: Oosten 7.2 m/s
Temperatuur: 2°C
Voelt als: -3°C
Dauwpunt: -2°C
Vochtigheid: 75%
Barometer: 1025 hPa
Bewolking: Overcast
Zicht: meer dan 10 km
Bewolking: Bewolking 20000 ft
EHKD 231155Z AUTO 08014KT 9999 OVC200 02/M02 Q1025 BLU 08012KT 9999 FEW015 FEW040
EHGR - Gilze-Rijen Rnla, Netherlands
Afstand tot: ZZO 78 km
Gewijzigd: 23-02-2018 12:55
Helder  
Helder  
   Wind: ONO 8.2 m/s
Wind: ONO 8.2 m/s
Temperatuur: 2°C
Voelt als: -4°C
Dauwpunt: -6°C
Vochtigheid: 56%
Barometer: 1022 hPa
Bewolking: Clear
Zicht: meer dan 10 km
Bewolking: Helder ft
EHGR 231155Z AUTO 07016KT 030V140 9999 NCD 02/M06 Q1022 BLU 06010G20KT 9999 FEW030
EHQE - Hoorn-A Sea, Netherlands
Afstand tot: NNW 81 km
Gewijzigd: 23-02-2018 12:55
Grotendeels bewolkt  
Grotendeels bewolkt  
   Wind: ONO 10.3 m/s
Wind: ONO 10.3 m/s
Temperatuur: 1°C
Voelt als: -6°C
Dauwpunt: -4°C
Vochtigheid: 70%
Barometer: 1024 hPa
Bewolking: Mostly Cloudy
Zicht: meer dan 10 km
Bewolking: Licht bewolkt 1300 ft,
Gedeeltelijk bewolkt 1600 ft,
Grotendeels bewolkt 2300 ft
EHQE 231155Z AUTO 06020KT 9999 FEW013 SCT016 BKN023 01/M04 Q1024 W///H///
EHPG - P11-B Sea, Netherlands
Afstand tot: W 84 km
Gewijzigd: 23-02-2018 12:55
Gedeeltelijk bewolkt  
Gedeeltelijk bewolkt  
   Wind: ONO 12.3 m/s
Wind: ONO 12.3 m/s
Temperatuur: 2°C
Voelt als: -5°C
Dauwpunt: -5°C
Vochtigheid: 60%
Barometer: 1023 hPa
Bewolking: Partly Cloudy
Zicht: meer dan 10 km
Bewolking: Licht bewolkt 1600 ft,
Gedeeltelijk bewolkt 2700 ft
EHPG 231155Z AUTO 06024KT 9999 FEW016 SCT027 02/M05 Q1023 W///H///
EHWO - Woensdrecht Rnla, Netherlands
Afstand tot: Z 89 km
Gewijzigd: 23-02-2018 12:55
Helder  
Helder  
   Wind: ONO 8.2 m/s
Wind: ONO 8.2 m/s
Temperatuur: 2°C
Voelt als: -4°C
Dauwpunt: -5°C
Vochtigheid: 60%
Barometer: 1021 hPa
Bewolking: Clear
Zicht: meer dan 10 km
Bewolking: Helder ft
EHWO 231155Z AUTO 07016KT 030V110 9999 NCD 02/M05 Q1021 BLU 08015KT 9999 FEW028 TEMPO 07014G24KT
 

Script ontwikkeld door  Saratoga-weather.org Aangepast voor de template door  Weerstation Leuven

U vindt ons ook hier:

UK Metoffice

European Weather Network

WeatherCloud

Weather Underground

Benelux Weer Netwerk

AWEKAS

Citizen Weather Observer Program (CWOP)

Apparatuur in gebruik:

Weerstation
Davis VP2

Weerprogramma
Weather Display

Weercomputer
My Computer

Davis VP2

Weather Display

My Computer